createdAt,value
2022-11-10T00:01:49.029Z,5.28
2022-11-10T00:03:51.812Z,5.25
2022-11-10T00:05:55.598Z,5.24
2022-11-10T00:08:02.270Z,5.25
2022-11-10T00:10:06.413Z,5.24
2022-11-10T00:12:09.054Z,5.23
2022-11-10T00:14:30.387Z,5.21
2022-11-10T00:16:51.511Z,5.14
2022-11-10T00:18:54.167Z,5.11
2022-11-10T00:21:03.295Z,5.14
2022-11-10T00:23:05.988Z,5.11
2022-11-10T00:25:09.037Z,5.11
2022-11-10T00:27:12.318Z,5.15
2022-11-10T00:29:15.008Z,5.17
2022-11-10T00:31:17.601Z,5.17
2022-11-10T00:33:20.480Z,5.18
2022-11-10T00:35:23.455Z,5.22
2022-11-10T00:37:26.114Z,5.24
2022-11-10T00:39:28.821Z,5.24
2022-11-10T00:41:31.563Z,5.23
2022-11-10T00:43:34.694Z,5.26
2022-11-10T00:45:44.360Z,5.27
2022-11-10T00:47:47.040Z,5.23
2022-11-10T00:49:49.607Z,5.25
2022-11-10T00:51:52.502Z,5.24
2022-11-10T00:53:55.817Z,5.24
2022-11-10T00:55:58.738Z,5.26
2022-11-10T00:58:01.439Z,5.27
2022-11-10T01:00:05.060Z,5.29
2022-11-10T01:02:08.295Z,5.29
2022-11-10T01:04:10.866Z,5.29
2022-11-10T01:06:16.250Z,5.30
2022-11-10T01:08:18.831Z,5.27
2022-11-10T01:10:21.446Z,5.25
2022-11-10T01:12:24.199Z,5.27
2022-11-10T01:14:26.898Z,5.26
2022-11-10T01:16:31.791Z,5.28
2022-11-10T01:18:35.811Z,5.28
2022-11-10T01:20:38.577Z,5.28
2022-11-10T01:22:41.877Z,5.28
2022-11-10T01:24:44.532Z,5.29
2022-11-10T01:26:47.225Z,5.29
2022-11-10T01:28:50.032Z,5.29
2022-11-10T01:31:03.911Z,5.26
2022-11-10T01:33:06.712Z,5.29
2022-11-10T01:35:09.849Z,5.29
2022-11-10T01:37:12.993Z,5.23
2022-11-10T01:39:15.631Z,5.24
2022-11-10T01:41:18.373Z,5.26
2022-11-10T01:43:21.233Z,5.25
2022-11-10T01:45:24.112Z,5.24
2022-11-10T01:47:26.802Z,5.23
2022-11-10T01:49:32.584Z,5.25
2022-11-10T01:51:49.339Z,5.29
2022-11-10T01:54:06.590Z,5.27
2022-11-10T01:56:12.225Z,5.26
2022-11-10T01:58:18.162Z,5.26
2022-11-10T02:00:21.799Z,5.28
2022-11-10T02:02:33.300Z,5.26
2022-11-10T02:04:37.452Z,5.31
2022-11-10T02:06:42.753Z,5.29
2022-11-10T02:08:47.308Z,5.32
2022-11-10T02:10:49.871Z,5.33
2022-11-10T02:12:52.692Z,5.33
2022-11-10T02:15:18.082Z,5.31
2022-11-10T02:17:20.686Z,5.32
2022-11-10T02:19:25.775Z,5.35
2022-11-10T02:21:28.445Z,5.35
2022-11-10T02:23:31.010Z,5.37
2022-11-10T02:25:34.815Z,5.37
2022-11-10T02:27:37.487Z,5.38
2022-11-10T02:29:40.182Z,5.38
2022-11-10T02:31:42.849Z,5.38
2022-11-10T02:33:45.502Z,5.38
2022-11-10T02:35:48.829Z,5.42
2022-11-10T02:37:51.468Z,5.42
2022-11-10T02:39:54.131Z,5.43
2022-11-10T02:41:56.805Z,5.45
2022-11-10T02:43:59.738Z,5.45
2022-11-10T02:46:02.432Z,5.42
2022-11-10T02:48:05.157Z,5.46
2022-11-10T02:50:08.180Z,5.46
2022-11-10T02:52:11.484Z,5.41
2022-11-10T02:54:14.117Z,5.48
2022-11-10T02:56:16.767Z,5.52
2022-11-10T02:58:19.612Z,5.52
2022-11-10T03:00:22.368Z,5.52
2022-11-10T03:02:28.508Z,5.50
2022-11-10T03:04:34.792Z,5.52
2022-11-10T03:06:37.413Z,5.55
2022-11-10T03:08:40.131Z,5.54
2022-11-10T03:10:42.835Z,5.56
2022-11-10T03:12:45.502Z,5.56
2022-11-10T03:14:48.188Z,5.58
2022-11-10T03:16:50.883Z,5.57
2022-11-10T03:18:53.500Z,5.58
2022-11-10T03:20:56.123Z,5.59
2022-11-10T03:23:03.481Z,5.57
2022-11-10T03:25:07.045Z,5.55
2022-11-10T03:27:09.760Z,5.55
2022-11-10T03:29:12.371Z,5.55
2022-11-10T03:31:14.975Z,5.57
2022-11-10T03:33:17.718Z,5.56
2022-11-10T03:35:20.378Z,5.55
2022-11-10T03:37:22.977Z,5.59
2022-11-10T03:39:25.699Z,5.60
2022-11-10T03:41:28.392Z,5.61
2022-11-10T03:43:30.972Z,5.61
2022-11-10T03:45:33.660Z,5.58
2022-11-10T03:47:36.342Z,5.60
2022-11-10T03:49:39.011Z,5.60
2022-11-10T03:51:41.696Z,5.61
2022-11-10T03:53:44.448Z,5.62
2022-11-10T03:55:47.115Z,5.62
2022-11-10T03:57:49.940Z,5.59
2022-11-10T03:59:52.819Z,5.59
2022-11-10T04:01:55.459Z,5.60
2022-11-10T04:03:58.258Z,5.56
2022-11-10T04:06:19.503Z,5.60
2022-11-10T04:08:40.475Z,5.61
2022-11-10T04:10:43.252Z,5.58
2022-11-10T04:13:04.700Z,5.57
2022-11-10T04:15:27.155Z,5.59
2022-11-10T04:17:31.680Z,5.61
2022-11-10T04:19:34.299Z,5.61
2022-11-10T04:21:36.891Z,5.62
2022-11-10T04:23:39.512Z,5.64
2022-11-10T04:26:02.087Z,5.64
2022-11-10T04:28:04.787Z,5.63
2022-11-10T04:30:07.785Z,5.63
2022-11-10T04:32:10.529Z,5.63
2022-11-10T04:34:15.504Z,5.67
2022-11-10T04:36:20.689Z,5.67
2022-11-10T04:38:23.365Z,5.69
2022-11-10T04:40:26.223Z,5.71
2022-11-10T04:42:28.912Z,5.71
2022-11-10T04:44:31.510Z,5.74
2022-11-10T04:46:36.988Z,5.75
2022-11-10T04:48:39.624Z,5.77
2022-11-10T04:50:42.267Z,5.77
2022-11-10T04:52:44.832Z,5.79
2022-11-10T04:54:47.399Z,5.79
2022-11-10T04:56:50.045Z,5.77
2022-11-10T04:58:53.657Z,5.77
2022-11-10T05:00:56.452Z,5.79
2022-11-10T05:03:00.986Z,5.77
2022-11-10T05:05:03.731Z,5.80
2022-11-10T05:07:06.422Z,5.69
2022-11-10T05:09:09.107Z,5.79
2022-11-10T05:11:12.746Z,5.80
2022-11-10T05:13:15.386Z,5.80
2022-11-10T05:15:17.975Z,5.81
2022-11-10T05:17:20.629Z,5.81
2022-11-10T05:19:23.255Z,5.83
2022-11-10T05:21:25.848Z,5.82
2022-11-10T05:23:42.061Z,5.83
2022-11-10T05:25:45.073Z,5.83
2022-11-10T05:27:47.726Z,5.81
2022-11-10T05:29:50.489Z,5.83
2022-11-10T05:31:53.059Z,5.84
2022-11-10T05:33:55.682Z,5.87
2022-11-10T05:35:58.473Z,5.86
2022-11-10T05:38:01.217Z,5.87
2022-11-10T05:40:04.083Z,5.88
2022-11-10T05:42:06.970Z,5.88
2022-11-10T05:44:09.668Z,5.92
2022-11-10T05:46:12.315Z,5.92
2022-11-10T05:48:15.002Z,5.90
2022-11-10T05:50:19.460Z,5.89
2022-11-10T05:52:22.483Z,5.89
2022-11-10T05:54:25.072Z,5.91
2022-11-10T05:56:27.696Z,5.90
2022-11-10T05:58:30.486Z,5.91
2022-11-10T06:00:33.845Z,5.90
2022-11-10T06:02:36.778Z,5.90
2022-11-10T06:04:39.590Z,5.91
2022-11-10T06:06:42.226Z,5.90
2022-11-10T06:08:44.930Z,5.92
2022-11-10T06:10:47.521Z,5.92
2022-11-10T06:12:50.242Z,5.93
2022-11-10T06:14:52.818Z,5.93
2022-11-10T06:16:56.211Z,5.95
2022-11-10T06:18:58.824Z,5.93
2022-11-10T06:21:01.456Z,5.93
2022-11-10T06:23:06.866Z,5.96
2022-11-10T06:25:10.538Z,5.96
2022-11-10T06:27:13.199Z,5.96
2022-11-10T06:29:15.879Z,5.99
2022-11-10T06:31:18.510Z,6.01
2022-11-10T06:33:21.437Z,6.02
2022-11-10T06:35:25.134Z,6.02
2022-11-10T06:37:27.780Z,6.06
2022-11-10T06:39:30.402Z,6.03
2022-11-10T06:41:34.126Z,6.04
2022-11-10T06:43:36.886Z,6.06
2022-11-10T06:45:39.527Z,6.05
2022-11-10T06:47:42.190Z,6.05
2022-11-10T06:49:45.186Z,6.06
2022-11-10T06:51:47.811Z,6.06
2022-11-10T06:53:50.557Z,6.06
2022-11-10T06:55:53.411Z,6.05
2022-11-10T06:57:56.250Z,6.08
2022-11-10T06:59:58.864Z,6.08
2022-11-10T07:02:01.520Z,6.10
2022-11-10T07:04:19.248Z,6.09
2022-11-10T07:06:22.992Z,6.12
2022-11-10T07:08:25.606Z,6.11
2022-11-10T07:10:28.311Z,6.15
2022-11-10T07:12:30.890Z,6.16
2022-11-10T07:14:33.540Z,6.15
2022-11-10T07:16:36.271Z,6.17
2022-11-10T07:18:38.923Z,6.20
2022-11-10T07:20:41.892Z,6.19
2022-11-10T07:22:44.529Z,6.19
2022-11-10T07:24:47.110Z,6.20
2022-11-10T07:26:49.898Z,6.18
2022-11-10T07:28:52.535Z,6.17
2022-11-10T07:30:55.335Z,6.17
2022-11-10T07:33:01.984Z,6.21
2022-11-10T07:35:04.905Z,6.19
2022-11-10T07:37:07.554Z,6.22
2022-11-10T07:39:11.551Z,6.26
2022-11-10T07:41:14.125Z,6.24
2022-11-10T07:43:16.968Z,6.26
2022-11-10T07:45:19.713Z,6.20
2022-11-10T07:47:22.332Z,6.27
2022-11-10T07:49:25.060Z,6.29
2022-11-10T07:51:27.710Z,6.25
2022-11-10T07:53:30.375Z,6.30
2022-11-10T07:55:34.543Z,6.30
2022-11-10T07:57:37.134Z,6.29
2022-11-10T07:59:39.766Z,6.31
2022-11-10T08:01:42.471Z,6.28
2022-11-10T08:03:45.135Z,6.28
2022-11-10T08:05:48.237Z,6.31
2022-11-10T08:07:53.585Z,6.30
2022-11-10T08:09:56.270Z,6.29
2022-11-10T08:11:58.910Z,6.33
2022-11-10T08:14:01.568Z,6.35
2022-11-10T08:16:04.580Z,6.38
2022-11-10T08:18:15.879Z,6.38
2022-11-10T08:20:18.947Z,6.42
2022-11-10T08:22:21.719Z,6.41
2022-11-10T08:24:24.325Z,6.47
2022-11-10T08:26:26.956Z,6.48
2022-11-10T08:28:29.571Z,6.50
2022-11-10T08:30:33.560Z,6.52
2022-11-10T08:32:36.289Z,6.53
2022-11-10T08:34:38.881Z,6.50
2022-11-10T08:36:41.522Z,6.52
2022-11-10T08:38:44.085Z,6.53
2022-11-10T08:40:47.087Z,6.53
2022-11-10T08:42:57.665Z,6.51
2022-11-10T08:45:00.303Z,6.53
2022-11-10T08:47:02.985Z,6.52
2022-11-10T08:49:05.661Z,6.51
2022-11-10T08:51:08.352Z,6.49
2022-11-10T08:53:13.449Z,6.50
2022-11-10T08:55:16.195Z,6.50
2022-11-10T08:57:19.162Z,6.45
2022-11-10T08:59:21.781Z,6.49
2022-11-10T09:01:24.454Z,6.50
2022-11-10T09:03:27.375Z,6.49
2022-11-10T09:05:30.216Z,6.51
2022-11-10T09:07:54.625Z,6.51
2022-11-10T09:10:06.876Z,6.52
2022-11-10T09:12:10.429Z,6.49
2022-11-10T09:14:13.148Z,6.50
2022-11-10T09:16:16.139Z,6.48
2022-11-10T09:18:18.821Z,6.35
2022-11-10T09:20:21.868Z,6.49
2022-11-10T09:22:24.936Z,6.51
2022-11-10T09:24:31.340Z,6.53
2022-11-10T09:26:34.356Z,6.55
2022-11-10T09:28:37.067Z,6.55
2022-11-10T09:30:40.406Z,6.56
2022-11-10T09:32:46.914Z,6.58
2022-11-10T09:34:52.986Z,6.57
2022-11-10T09:36:57.405Z,6.53
2022-11-10T09:39:00.026Z,6.52
2022-11-10T09:41:07.876Z,6.56
2022-11-10T09:43:24.112Z,6.56
2022-11-10T09:45:33.973Z,6.56
2022-11-10T09:47:57.744Z,6.54
2022-11-10T09:50:03.446Z,6.55
2022-11-10T09:52:08.940Z,6.57
2022-11-10T09:54:39.520Z,6.59
2022-11-10T09:56:42.509Z,6.60
2022-11-10T09:58:46.687Z,6.60
2022-11-10T10:01:02.841Z,6.61
2022-11-10T10:03:06.931Z,6.65
2022-11-10T10:05:34.559Z,6.68
2022-11-10T10:08:11.309Z,6.66
2022-11-10T10:10:23.154Z,6.66
2022-11-10T10:12:31.608Z,6.68
2022-11-10T10:14:56.972Z,6.69
2022-11-10T10:16:59.494Z,6.72
2022-11-10T10:19:26.686Z,6.73
2022-11-10T10:21:47.378Z,6.76
2022-11-10T10:24:11.456Z,6.76
2022-11-10T10:26:18.932Z,6.76
2022-11-10T10:28:33.834Z,6.80
2022-11-10T10:30:36.542Z,6.82
2022-11-10T10:32:39.295Z,6.84
2022-11-10T10:34:43.813Z,6.85
2022-11-10T10:36:46.689Z,6.85
2022-11-10T10:38:54.501Z,6.88
2022-11-10T10:41:02.627Z,6.91
2022-11-10T10:43:05.309Z,6.92
2022-11-10T10:45:21.341Z,6.95
2022-11-10T10:47:36.845Z,6.96
2022-11-10T10:49:39.790Z,6.97
2022-11-10T10:51:43.044Z,6.95
2022-11-10T10:53:47.968Z,6.95
2022-11-10T10:56:02.732Z,6.97
2022-11-10T10:58:27.620Z,6.96
2022-11-10T11:00:30.348Z,6.95
2022-11-10T11:02:33.305Z,6.91
2022-11-10T11:04:37.876Z,6.93
2022-11-10T11:06:40.684Z,6.96
2022-11-10T11:08:59.489Z,6.96
2022-11-10T11:11:12.207Z,6.97
2022-11-10T11:13:28.446Z,7.02
2022-11-10T11:15:31.022Z,6.99
2022-11-10T11:17:34.723Z,7.01
2022-11-10T11:19:38.376Z,7.01
2022-11-10T11:21:50.548Z,7.03
2022-11-10T11:24:44.251Z,7.08
2022-11-10T11:27:01.297Z,7.04
2022-11-10T11:29:16.953Z,7.05
2022-11-10T11:31:45.629Z,7.08
2022-11-10T11:34:17.623Z,7.10
2022-11-10T11:36:45.327Z,7.10
2022-11-10T11:38:58.856Z,7.12
2022-11-10T11:41:14.410Z,7.13
2022-11-10T11:43:19.757Z,7.13
2022-11-10T11:45:55.360Z,7.14
2022-11-10T11:48:11.531Z,7.14
2022-11-10T11:50:37.278Z,7.08
2022-11-10T11:52:46.436Z,7.11
2022-11-10T11:55:19.793Z,7.11
2022-11-10T11:58:05.742Z,7.08
2022-11-10T12:00:15.754Z,7.08
2022-11-10T12:02:53.246Z,7.08
2022-11-10T12:05:25.709Z,7.09
2022-11-10T12:07:36.366Z,7.10
2022-11-10T12:09:51.183Z,7.11
2022-11-10T12:12:03.623Z,7.14
2022-11-10T12:14:12.213Z,7.13
2022-11-10T12:16:32.327Z,7.12
2022-11-10T12:18:38.031Z,7.14
2022-11-10T12:21:13.805Z,7.12
2022-11-10T12:23:47.120Z,7.09
2022-11-10T12:26:15.188Z,7.10
2022-11-10T12:28:26.457Z,7.10
2022-11-10T12:30:31.189Z,7.12
2022-11-10T12:33:05.529Z,7.13
2022-11-10T12:35:20.364Z,7.13
2022-11-10T12:37:33.561Z,7.12
2022-11-10T12:39:45.911Z,7.13
2022-11-10T12:41:58.312Z,7.11
2022-11-10T12:44:08.452Z,7.13
2022-11-10T12:46:13.706Z,7.15
2022-11-10T12:48:18.061Z,7.15
2022-11-10T12:50:42.148Z,7.16
2022-11-10T12:52:52.805Z,7.13
2022-11-10T12:54:55.652Z,7.14
2022-11-10T12:57:23.943Z,7.10
2022-11-10T12:59:39.579Z,7.12
2022-11-10T13:01:51.532Z,7.13
2022-11-10T13:03:58.120Z,7.12
2022-11-10T13:06:05.539Z,7.13
2022-11-10T13:08:30.762Z,7.14
2022-11-10T13:10:33.589Z,7.14
2022-11-10T13:12:36.233Z,7.14
2022-11-10T13:14:39.714Z,7.10
2022-11-10T13:16:42.286Z,7.13
2022-11-10T13:18:44.754Z,7.13
2022-11-10T13:20:56.906Z,7.11
2022-11-10T13:22:59.547Z,7.09
2022-11-10T13:25:37.638Z,7.10
2022-11-10T13:27:43.057Z,7.08
2022-11-10T13:29:45.563Z,7.11
2022-11-10T13:31:54.142Z,7.12
2022-11-10T13:34:28.835Z,7.11
2022-11-10T13:36:45.638Z,7.08
2022-11-10T13:38:49.406Z,7.07
2022-11-10T13:40:52.051Z,7.08
2022-11-10T13:42:57.384Z,7.10
2022-11-10T13:45:31.740Z,7.11
2022-11-10T13:47:44.668Z,7.10
2022-11-10T13:50:13.156Z,7.07
2022-11-10T13:52:20.837Z,7.06
2022-11-10T13:54:40.022Z,7.06
2022-11-10T13:57:05.091Z,7.09
2022-11-10T13:59:19.914Z,7.10
2022-11-10T14:01:27.272Z,7.10
2022-11-10T14:03:48.099Z,7.08
2022-11-10T14:06:11.462Z,7.10
2022-11-10T14:08:18.434Z,7.06
2022-11-10T14:10:33.572Z,7.09
2022-11-10T14:12:44.797Z,7.09
2022-11-10T14:15:00.165Z,7.08
2022-11-10T14:17:04.060Z,7.10
2022-11-10T14:19:23.465Z,7.10
2022-11-10T14:21:35.560Z,7.12
2022-11-10T14:23:49.290Z,7.10
2022-11-10T14:26:05.006Z,7.11
2022-11-10T14:28:27.390Z,7.08
2022-11-10T14:30:33.642Z,7.07
2022-11-10T14:32:36.500Z,7.06
2022-11-10T14:34:54.276Z,7.05
2022-11-10T14:36:59.345Z,7.05
2022-11-10T14:39:03.997Z,7.04
2022-11-10T14:41:14.486Z,7.05
2022-11-10T14:43:27.680Z,7.07
2022-11-10T14:45:30.673Z,7.06
2022-11-10T14:47:33.325Z,7.05
2022-11-10T14:49:35.985Z,7.05
2022-11-10T14:51:38.623Z,7.06
2022-11-10T14:53:55.238Z,7.06
2022-11-10T14:56:00.239Z,7.05
2022-11-10T14:58:13.657Z,7.05
2022-11-10T15:00:20.574Z,7.07
2022-11-10T15:02:23.328Z,7.03
2022-11-10T15:04:33.727Z,7.01
2022-11-10T15:06:36.691Z,7.01
2022-11-10T15:08:41.136Z,7.02
2022-11-10T15:10:49.317Z,7.02
2022-11-10T15:13:07.156Z,7.03
2022-11-10T15:15:22.330Z,7.03
2022-11-10T15:17:48.125Z,6.99
2022-11-10T15:19:50.659Z,7.04
2022-11-10T15:21:53.311Z,7.04
2022-11-10T15:24:00.003Z,7.04
2022-11-10T15:26:07.260Z,7.03
2022-11-10T15:28:12.614Z,7.06
2022-11-10T15:30:25.644Z,7.03
2022-11-10T15:32:40.903Z,7.05
2022-11-10T15:34:45.697Z,7.07
2022-11-10T15:36:48.394Z,7.07
2022-11-10T15:39:06.287Z,7.09
2022-11-10T15:41:27.378Z,7.09
2022-11-10T15:43:30.407Z,7.06
2022-11-10T15:45:33.040Z,7.06
2022-11-10T15:47:35.786Z,7.06
2022-11-10T15:49:39.225Z,7.05
2022-11-10T15:51:41.884Z,7.04
2022-11-10T15:53:49.322Z,7.05
2022-11-10T15:55:51.961Z,7.11
2022-11-10T15:57:54.626Z,7.09
2022-11-10T15:59:57.301Z,7.11
2022-11-10T16:02:00.048Z,7.12
2022-11-10T16:04:02.773Z,7.09
2022-11-10T16:06:05.858Z,7.13
2022-11-10T16:08:19.938Z,7.11
2022-11-10T16:10:24.942Z,7.13
2022-11-10T16:12:28.002Z,7.15
2022-11-10T16:14:30.709Z,7.13
2022-11-10T16:16:33.384Z,7.14
2022-11-10T16:18:37.977Z,7.17
2022-11-10T16:20:43.949Z,7.10
2022-11-10T16:22:46.631Z,7.11
2022-11-10T16:24:49.273Z,7.11
2022-11-10T16:26:51.917Z,7.10
2022-11-10T16:28:54.570Z,7.11
2022-11-10T16:30:57.159Z,7.08
2022-11-10T16:33:00.371Z,7.10
2022-11-10T16:35:03.961Z,7.10
2022-11-10T16:37:06.788Z,7.09
2022-11-10T16:39:15.024Z,7.12
2022-11-10T16:41:17.741Z,7.11
2022-11-10T16:43:20.726Z,7.11
2022-11-10T16:45:30.215Z,7.11
2022-11-10T16:47:33.026Z,7.10
2022-11-10T16:49:36.173Z,7.12
2022-11-10T16:51:48.549Z,6.99
2022-11-10T16:53:53.468Z,7.12
2022-11-10T16:55:56.453Z,7.11
2022-11-10T16:57:59.477Z,7.08
2022-11-10T17:00:02.331Z,7.07
2022-11-10T17:02:24.457Z,7.05
2022-11-10T17:04:27.159Z,7.01
2022-11-10T17:06:30.754Z,7.02
2022-11-10T17:08:35.705Z,6.99
2022-11-10T17:10:38.659Z,6.97
2022-11-10T17:12:41.370Z,6.95
2022-11-10T17:14:44.025Z,6.95
2022-11-10T17:16:47.559Z,6.92
2022-11-10T17:18:50.955Z,6.90
2022-11-10T17:20:53.626Z,6.88
2022-11-10T17:22:56.895Z,6.87
2022-11-10T17:24:59.680Z,6.84
2022-11-10T17:27:02.567Z,6.84
2022-11-10T17:29:05.285Z,6.82
2022-11-10T17:31:08.154Z,6.81
2022-11-10T17:33:11.023Z,6.77
2022-11-10T17:35:13.795Z,6.76
2022-11-10T17:37:16.849Z,6.76
2022-11-10T17:39:19.891Z,6.73
2022-11-10T17:41:22.633Z,6.72
2022-11-10T17:43:25.796Z,6.71
2022-11-10T17:45:30.253Z,6.73
2022-11-10T17:47:32.897Z,6.70
2022-11-10T17:49:35.499Z,6.65
2022-11-10T17:51:38.306Z,6.65
2022-11-10T17:53:42.732Z,6.65
2022-11-10T17:55:45.611Z,6.61
2022-11-10T17:57:48.682Z,6.57
2022-11-10T17:59:51.451Z,6.54
2022-11-10T18:01:54.194Z,6.53
2022-11-10T18:03:56.894Z,6.49
2022-11-10T18:05:59.573Z,6.51
2022-11-10T18:08:02.281Z,6.47
2022-11-10T18:10:06.087Z,6.49
2022-11-10T18:12:08.762Z,6.49
2022-11-10T18:14:11.900Z,6.46
2022-11-10T18:16:14.995Z,6.47
2022-11-10T18:18:18.511Z,6.45
2022-11-10T18:20:21.189Z,6.44
2022-11-10T18:22:23.891Z,6.44
2022-11-10T18:24:26.461Z,6.44
2022-11-10T18:26:29.148Z,6.41
2022-11-10T18:28:31.963Z,6.37
2022-11-10T18:30:35.638Z,6.39
2022-11-10T18:32:38.305Z,6.39
2022-11-10T18:34:40.987Z,6.40
2022-11-10T18:36:43.732Z,6.42
2022-11-10T18:38:46.447Z,6.44
2022-11-10T18:40:49.081Z,6.45
2022-11-10T18:42:55.595Z,6.46
2022-11-10T18:44:58.239Z,6.46
2022-11-10T18:47:00.901Z,6.46
2022-11-10T18:49:03.659Z,6.46
2022-11-10T18:51:06.658Z,6.47
2022-11-10T18:53:09.860Z,6.48
2022-11-10T18:55:12.880Z,6.41
2022-11-10T18:57:16.911Z,6.48
2022-11-10T18:59:20.277Z,6.48
2022-11-10T19:01:23.237Z,6.48
2022-11-10T19:03:26.366Z,6.47
2022-11-10T19:05:29.310Z,6.50
2022-11-10T19:07:32.174Z,6.50
2022-11-10T19:09:35.169Z,6.49
2022-11-10T19:11:38.512Z,6.48
2022-11-10T19:13:41.379Z,6.48
2022-11-10T19:15:44.138Z,6.49
2022-11-10T19:17:46.775Z,6.49
2022-11-10T19:19:55.045Z,6.50
2022-11-10T19:21:59.215Z,6.48
2022-11-10T19:24:01.963Z,6.49
2022-11-10T19:26:10.716Z,6.49
2022-11-10T19:28:13.791Z,6.48
2022-11-10T19:30:16.731Z,6.49
2022-11-10T19:32:24.523Z,6.47
2022-11-10T19:34:27.542Z,6.45
2022-11-10T19:36:30.252Z,6.47
2022-11-10T19:38:33.578Z,6.46
2022-11-10T19:40:39.443Z,6.48
2022-11-10T19:42:42.115Z,6.48
2022-11-10T19:44:44.744Z,6.47
2022-11-10T19:46:47.471Z,6.46
2022-11-10T19:48:50.839Z,6.46
2022-11-10T19:50:57.636Z,6.45
2022-11-10T19:53:00.290Z,6.47
2022-11-10T19:55:02.961Z,6.47
2022-11-10T19:57:07.116Z,6.46
2022-11-10T19:59:09.870Z,6.47
2022-11-10T20:01:13.340Z,6.48
2022-11-10T20:03:16.066Z,6.45
2022-11-10T20:05:18.707Z,6.47
2022-11-10T20:07:40.117Z,6.46
2022-11-10T20:09:42.766Z,6.48
2022-11-10T20:11:46.346Z,6.49
2022-11-10T20:13:54.361Z,6.53
2022-11-10T20:15:57.730Z,6.50
2022-11-10T20:18:00.378Z,6.52
2022-11-10T20:20:03.225Z,6.51
2022-11-10T20:22:07.217Z,6.57
2022-11-10T20:24:09.900Z,6.57
2022-11-10T20:26:16.180Z,6.60
2022-11-10T20:28:18.889Z,6.60
2022-11-10T20:30:23.803Z,6.61
2022-11-10T20:32:27.166Z,6.61
2022-11-10T20:34:29.815Z,6.61
2022-11-10T20:36:34.136Z,6.63
2022-11-10T20:38:37.658Z,6.64
2022-11-10T20:40:44.839Z,6.66
2022-11-10T20:42:47.857Z,6.67
2022-11-10T20:44:50.484Z,6.69
2022-11-10T20:46:54.808Z,6.66
2022-11-10T20:48:57.931Z,6.70
2022-11-10T20:51:01.325Z,6.71
2022-11-10T20:53:05.997Z,6.70
2022-11-10T20:55:08.771Z,6.71
2022-11-10T20:57:11.750Z,6.73
2022-11-10T20:59:14.926Z,6.71
2022-11-10T21:01:17.793Z,6.73
2022-11-10T21:03:22.450Z,6.75
2022-11-10T21:05:25.488Z,6.75
2022-11-10T21:07:29.597Z,6.76
2022-11-10T21:09:32.352Z,6.74
2022-11-10T21:11:53.725Z,6.77
2022-11-10T21:13:56.330Z,6.76
2022-11-10T21:16:01.178Z,6.77
2022-11-10T21:18:03.891Z,6.77
2022-11-10T21:20:07.794Z,6.80
2022-11-10T21:22:10.460Z,6.78
2022-11-10T21:24:13.058Z,6.78
2022-11-10T21:26:15.712Z,6.81
2022-11-10T21:28:18.457Z,6.80
2022-11-10T21:30:23.726Z,6.82
2022-11-10T21:32:26.394Z,6.83
2022-11-10T21:34:29.058Z,6.86
2022-11-10T21:36:31.864Z,6.86
2022-11-10T21:38:36.061Z,6.87
2022-11-10T21:40:38.910Z,6.87
2022-11-10T21:42:41.521Z,6.88
2022-11-10T21:44:44.278Z,6.84
2022-11-10T21:46:47.377Z,6.90
2022-11-10T21:48:50.904Z,6.89
2022-11-10T21:50:53.524Z,6.88
2022-11-10T21:52:56.160Z,6.90
2022-11-10T21:54:59.746Z,6.89
2022-11-10T21:57:02.357Z,6.91
2022-11-10T21:59:04.982Z,6.89
2022-11-10T22:01:16.327Z,6.91
2022-11-10T22:03:19.168Z,6.90
2022-11-10T22:05:21.797Z,6.91
2022-11-10T22:07:24.630Z,6.93
2022-11-10T22:09:45.850Z,6.87
2022-11-10T22:12:07.198Z,6.90
2022-11-10T22:14:32.174Z,6.87
2022-11-10T22:17:05.427Z,6.89
2022-11-10T22:19:08.772Z,6.88
2022-11-10T22:21:12.187Z,6.87
2022-11-10T22:23:15.082Z,6.86
2022-11-10T22:25:17.760Z,6.86
2022-11-10T22:27:20.390Z,6.86
2022-11-10T22:29:27.349Z,6.83
2022-11-10T22:31:34.085Z,6.82
2022-11-10T22:33:39.101Z,6.81
2022-11-10T22:35:44.278Z,6.81
2022-11-10T22:37:46.859Z,6.80
2022-11-10T22:40:07.968Z,6.77
2022-11-10T22:42:31.197Z,6.76
2022-11-10T22:44:33.839Z,6.76
2022-11-10T22:46:48.329Z,6.75
2022-11-10T22:48:51.050Z,6.71
2022-11-10T22:50:57.687Z,6.74
2022-11-10T22:53:00.246Z,6.75
2022-11-10T22:55:02.852Z,6.75
2022-11-10T22:57:05.885Z,6.75
2022-11-10T22:59:09.044Z,6.76
2022-11-10T23:01:12.132Z,6.70
2022-11-10T23:03:14.956Z,6.72
2022-11-10T23:05:17.539Z,6.70
2022-11-10T23:07:20.155Z,6.69
2022-11-10T23:09:22.888Z,6.69
2022-11-10T23:11:28.793Z,6.69
2022-11-10T23:13:32.900Z,6.71
2022-11-10T23:15:35.474Z,6.68
2022-11-10T23:17:38.175Z,6.65
2022-11-10T23:19:40.999Z,6.66
2022-11-10T23:21:43.582Z,6.66
2022-11-10T23:23:47.406Z,6.64
2022-11-10T23:26:04.439Z,6.64
2022-11-10T23:28:07.634Z,6.66
2022-11-10T23:30:10.752Z,6.64
2022-11-10T23:32:13.352Z,6.65
2022-11-10T23:34:15.943Z,6.66
2022-11-10T23:36:20.141Z,6.65
2022-11-10T23:38:22.739Z,6.63
2022-11-10T23:40:25.345Z,6.71
2022-11-10T23:42:30.976Z,6.72
2022-11-10T23:44:35.685Z,6.72
2022-11-10T23:46:38.316Z,6.73
2022-11-10T23:48:41.707Z,6.73
2022-11-10T23:50:44.948Z,6.73
2022-11-10T23:52:47.512Z,6.73
2022-11-10T23:54:50.211Z,6.75
2022-11-10T23:56:53.236Z,6.75
2022-11-10T23:58:55.816Z,6.72
